Shin-oh Maru — JG5594 — position and weather

sailwx.info

Track history (hours):
 
Tides and Currents Weather Stations Pressure Air Temp Water Temp Dewpoint Dewpoint Depression Visibility Wind Speed Wind Dir Waves Ship Positions

Shin-oh Maru

Last reported at 2014-Jul-26 22:33 UTC. Time now 2014-Jul-28 04:19 UTC.
Position N 36°09' E 141°09'.

Length 161 m; draft 7 m.

Type: Ship (hazmat cat A). MMSI: 431100859.

Date/timePositionNaut miles runAvg speedWind from/ knotsBaromVisibWave heightAir tempDewpointWater temp
2014-Jul-26 22:33N 36°09' E 141°09'1817.9
2014-Jul-26 21:33N 35°52' E 141°03'1818.2
2014-Jul-26 20:33N 35°35' E 140°55'1818.3
2014-Jul-26 19:33N 35°20' E 140°42'2019.8
2014-Jul-26 18:31N 35°04' E 140°27'2122.0
2014-Jul-26 17:33N 34°53' E 140°04'1717.3
2014-Jul-26 16:33N 34°56' E 139°43'1717.0
2014-Jul-26 15:33N 35°13' E 139°46'1212.4
2014-Jul-26 14:33N 35°25' E 139°44'1111.2
2014-Jul-26 13:33N 35°36' E 139°46'1 1.3
2014-Jul-26 12:33N 35°38' E 139°46'0 0.0
2014-Jul-26 11:33N 35°38' E 139°46'0 0.0
2014-Jul-26 10:27N 35°38' E 139°46'0 0.0
2014-Jul-26 09:27N 35°38' E 139°46'0 0.2
2014-Jul-26 08:33N 35°37' E 139°46'1110.9
2014-Jul-26 07:34N 35°27' E 139°50'1212.0
2014-Jul-26 06:34N 35°15' E 139°47'1818.0
2014-Jul-26 05:33N 34°58' E 139°43'1515.1
2014-Jul-26 04:33N 34°53' E 140°01'1615.8
2014-Jul-26 03:33N 34°60' E 140°18'1616.4
2014-Jul-26 02:33N 35°11' E 140°32'1818.1
2014-Jul-26 01:32N 35°25' E 140°47'1918.3
2014-Jul-26 00:31N 35°40' E 141°01'1818.4
2014-Jul-25 23:32N 35°58' E 141°07'1919.1
2014-Jul-25 22:33N 36°16' E 141°13'1919.5
2014-Jul-25 21:33N 36°35' E 141°19'1919.5
2014-Jul-25 20:34N 36°53' E 141°25'27 0.6
2014-Jul-23 23:30N 36°27' E 141°17'1717.9
2014-Jul-23 22:33N 36°11' E 141°11'1918.2
2014-Jul-23 21:31N 35°53' E 141°04'1918.3
2014-Jul-23 20:30N 35°36' E 140°55'1818.6
2014-Jul-23 19:33N 35°21' E 140°43'2120.0
2014-Jul-23 18:30N 35°05' E 140°26'2021.8
2014-Jul-23 17:33N 34°53' E 140°06'1716.9
2014-Jul-23 16:33N 34°55' E 139°45'1817.8
2014-Jul-23 15:33N 35°12' E 139°46'1313.2
2014-Jul-23 14:34N 35°26' E 139°44'1212.0
2014-Jul-23 13:33N 35°38' E 139°46'0 0.2
2014-Jul-23 12:33N 35°38' E 139°46'0 0.0
2014-Jul-23 11:29N 35°38' E 139°46'0 0.0
2014-Jul-23 10:29N 35°38' E 139°46'0 0.0
2014-Jul-23 09:29N 35°38' E 139°46'0 0.0
2014-Jul-23 08:32N 35°38' E 139°46'0 0.0
2014-Jul-23 07:23N 35°38' E 139°46'0 0.0
2014-Jul-23 06:23N 35°38' E 139°46'0 0.0
2014-Jul-23 05:32N 35°38' E 139°46'0 0.0
2014-Jul-23 04:29N 35°38' E 139°46'0 0.0
2014-Jul-23 03:23N 35°38' E 139°46'3 3.2
2014-Jul-23 02:33N 35°35' E 139°47'5 5.3
2014-Jul-23 01:33N 35°34' E 139°54'0 0.0
2014-Jul-23 00:31N 35°34' E 139°54'0 0.0
2014-Jul-22 23:31N 35°34' E 139°54'0 0.0
2014-Jul-22 22:31N 35°34' E 139°54'0 0.0
2014-Jul-22 21:28N 35°34' E 139°54'0 0.0
2014-Jul-22 20:28N 35°34' E 139°54'0 0.0
2014-Jul-22 19:31N 35°34' E 139°54'0 0.0
2014-Jul-22 18:31N 35°34' E 139°54'0 0.0
2014-Jul-22 17:31N 35°34' E 139°54'0 0.0
2014-Jul-22 16:31N 35°34' E 139°54'0 0.0
2014-Jul-22 15:31N 35°34' E 139°54'0 0.0
2014-Jul-22 14:31N 35°34' E 139°54'0 0.0
2014-Jul-22 13:31N 35°34' E 139°54'0 0.0
2014-Jul-22 12:31N 35°34' E 139°54'0 0.0
2014-Jul-22 11:31N 35°34' E 139°54'0 0.0
2014-Jul-22 10:31N 35°34' E 139°54'0 0.0
2014-Jul-22 09:31N 35°34' E 139°54'0 0.0
2014-Jul-22 08:31N 35°34' E 139°54'0 0.0
2014-Jul-22 07:31N 35°34' E 139°54'0 0.0
2014-Jul-22 06:31N 35°34' E 139°54'0 0.0
2014-Jul-22 05:31N 35°34' E 139°54'0 0.0
2014-Jul-22 04:31N 35°34' E 139°54'0 0.0
2014-Jul-22 03:31N 35°34' E 139°54'0 0.0
2014-Jul-22 02:31N 35°34' E 139°54'0 0.0
2014-Jul-22 01:31N 35°34' E 139°54'0 0.0
2014-Jul-22 00:22N 35°34' E 139°54'0 0.0
2014-Jul-21 23:31N 35°34' E 139°54'0 0.0
2014-Jul-21 22:31N 35°34' E 139°54'0 0.0
2014-Jul-21 21:28N 35°34' E 139°54'0 0.0
2014-Jul-21 20:31N 35°34' E 139°54'0 0.0
2014-Jul-21 20:13N 35°34' E 139°54'0 0.0
2014-Jul-21 19:28N 35°34' E 139°54'0 0.1
2014-Jul-21 18:31N 35°34' E 139°54'0 0.1
2014-Jul-21 17:31N 35°34' E 139°54'0 0.0
2014-Jul-21 16:31N 35°34' E 139°54'0 0.0
2014-Jul-21 15:31N 35°34' E 139°54'0 0.0
2014-Jul-21 14:31N 35°34' E 139°54'0 0.0
2014-Jul-21 13:31N 35°34' E 139°54'0 0.0
2014-Jul-21 12:31N 35°34' E 139°54'0 0.0
2014-Jul-21 11:22N 35°34' E 139°54'0 0.0
2014-Jul-21 10:28N 35°34' E 139°54'0 0.0
2014-Jul-21 09:33N 35°34' E 139°54'1111.4
2014-Jul-21 08:34N 35°24' E 139°47'1111.1
2014-Jul-21 07:33N 35°13' E 139°47'1817.9
2014-Jul-21 06:33N 34°56' E 139°45'1716.6
2014-Jul-21 05:33N 34°56' E 140°05'2218.6
2014-Jul-21 04:23N 35°07' E 140°28'1717.7
2014-Jul-21 03:26N 35°20' E 140°41'1818.2
2014-Jul-21 02:27N 35°34' E 140°54'2418.7
2014-Jul-21 01:11N 35°56' E 141°06'11 0.2
2014-Jul-18 22:11N 36°06' E 141°09'1518.8
2014-Jul-18 21:24N 35°53' E 141°04'1618.3
2014-Jul-18 20:34N 35°38' E 140°57'1919.2
2014-Jul-18 19:34N 35°22' E 140°44'1919.4
2014-Jul-18 18:34N 35°07' E 140°29'1818.1
2014-Jul-18 17:34N 34°56' E 140°11'1817.8
2014-Jul-18 16:32N 34°50' E 139°50'1717.5
2014-Jul-18 15:33N 35°07' E 139°44'1414.3
2014-Jul-18 14:33N 35°21' E 139°42'1514.9
2014-Jul-18 13:33N 35°35' E 139°48'3 3.1
2014-Jul-18 12:33N 35°38' E 139°46'0 0.0
2014-Jul-18 11:31N 35°38' E 139°46'0 0.0
2014-Jul-18 10:28N 35°38' E 139°46'0 0.0
2014-Jul-18 09:31N 35°38' E 139°46'0 0.0
2014-Jul-18 08:34N 35°38' E 139°46'1110.6
2014-Jul-18 07:33N 35°28' E 139°50'1212.3
2014-Jul-18 06:33N 35°16' E 139°47'1615.6
2014-Jul-18 05:33N 35°00' E 139°43'1514.8
2014-Jul-18 04:33N 34°51' E 139°57'1918.7
2014-Jul-18 03:33N 35°00' E 140°17'1817.8
2014-Jul-18 02:33N 35°12' E 140°34'1918.3
2014-Jul-18 01:33N 35°26' E 140°48'3819.0
2014-Jul-17 23:33N 35°60' E 141°08'  
Track history (hours):
 
Tides and Currents Weather Stations Pressure Air Temp Water Temp Dewpoint Dewpoint Depression Visibility Wind Speed Wind Dir Waves Ship Positions

Shin-oh Maru

Last reported at 2014-Jul-26 22:33 UTC. Time now 2014-Jul-28 04:19 UTC.
Position N 36°09' E 141°09'.

Length 161 m; draft 7 m.

Type: Ship (hazmat cat A). MMSI: 431100859.

Date/timePositionNaut miles runAvg speedWind from/ knotsBaromVisibWave heightAir tempDewpointWater temp
2014-Jul-26 22:33N 36°09' E 141°09'1817.9
2014-Jul-26 21:33N 35°52' E 141°03'1818.2
2014-Jul-26 20:33N 35°35' E 140°55'1818.3
2014-Jul-26 19:33N 35°20' E 140°42'2019.8
2014-Jul-26 18:31N 35°04' E 140°27'2122.0
2014-Jul-26 17:33N 34°53' E 140°04'1717.3
2014-Jul-26 16:33N 34°56' E 139°43'1717.0
2014-Jul-26 15:33N 35°13' E 139°46'1212.4
2014-Jul-26 14:33N 35°25' E 139°44'1111.2
2014-Jul-26 13:33N 35°36' E 139°46'1 1.3
2014-Jul-26 12:33N 35°38' E 139°46'0 0.0
2014-Jul-26 11:33N 35°38' E 139°46'0 0.0
2014-Jul-26 10:27N 35°38' E 139°46'0 0.0
2014-Jul-26 09:27N 35°38' E 139°46'0 0.2
2014-Jul-26 08:33N 35°37' E 139°46'1110.9
2014-Jul-26 07:34N 35°27' E 139°50'1212.0
2014-Jul-26 06:34N 35°15' E 139°47'1818.0
2014-Jul-26 05:33N 34°58' E 139°43'1515.1
2014-Jul-26 04:33N 34°53' E 140°01'1615.8
2014-Jul-26 03:33N 34°60' E 140°18'1616.4
2014-Jul-26 02:33N 35°11' E 140°32'1818.1
2014-Jul-26 01:32N 35°25' E 140°47'1918.3
2014-Jul-26 00:31N 35°40' E 141°01'1818.4
2014-Jul-25 23:32N 35°58' E 141°07'1919.1
2014-Jul-25 22:33N 36°16' E 141°13'1919.5
2014-Jul-25 21:33N 36°35' E 141°19'1919.5
2014-Jul-25 20:34N 36°53' E 141°25'27 0.6
2014-Jul-23 23:30N 36°27' E 141°17'1717.9
2014-Jul-23 22:33N 36°11' E 141°11'1918.2
2014-Jul-23 21:31N 35°53' E 141°04'1918.3
2014-Jul-23 20:30N 35°36' E 140°55'1818.6
2014-Jul-23 19:33N 35°21' E 140°43'2120.0
2014-Jul-23 18:30N 35°05' E 140°26'2021.8
2014-Jul-23 17:33N 34°53' E 140°06'1716.9
2014-Jul-23 16:33N 34°55' E 139°45'1817.8
2014-Jul-23 15:33N 35°12' E 139°46'1313.2
2014-Jul-23 14:34N 35°26' E 139°44'1212.0
2014-Jul-23 13:33N 35°38' E 139°46'0 0.2
2014-Jul-23 12:33N 35°38' E 139°46'0 0.0
2014-Jul-23 11:29N 35°38' E 139°46'0 0.0
2014-Jul-23 10:29N 35°38' E 139°46'0 0.0
2014-Jul-23 09:29N 35°38' E 139°46'0 0.0
2014-Jul-23 08:32N 35°38' E 139°46'0 0.0
2014-Jul-23 07:23N 35°38' E 139°46'0 0.0
2014-Jul-23 06:23N 35°38' E 139°46'0 0.0
2014-Jul-23 05:32N 35°38' E 139°46'0 0.0
2014-Jul-23 04:29N 35°38' E 139°46'0 0.0
2014-Jul-23 03:23N 35°38' E 139°46'3 3.2
2014-Jul-23 02:33N 35°35' E 139°47'5 5.3
2014-Jul-23 01:33N 35°34' E 139°54'0 0.0
2014-Jul-23 00:31N 35°34' E 139°54'0 0.0
2014-Jul-22 23:31N 35°34' E 139°54'0 0.0
2014-Jul-22 22:31N 35°34' E 139°54'0 0.0
2014-Jul-22 21:28N 35°34' E 139°54'0 0.0
2014-Jul-22 20:28N 35°34' E 139°54'0 0.0
2014-Jul-22 19:31N 35°34' E 139°54'0 0.0
2014-Jul-22 18:31N 35°34' E 139°54'0 0.0
2014-Jul-22 17:31N 35°34' E 139°54'0 0.0
2014-Jul-22 16:31N 35°34' E 139°54'0 0.0
2014-Jul-22 15:31N 35°34' E 139°54'0 0.0
2014-Jul-22 14:31N 35°34' E 139°54'0 0.0
2014-Jul-22 13:31N 35°34' E 139°54'0 0.0
2014-Jul-22 12:31N 35°34' E 139°54'0 0.0
2014-Jul-22 11:31N 35°34' E 139°54'0 0.0
2014-Jul-22 10:31N 35°34' E 139°54'0 0.0
2014-Jul-22 09:31N 35°34' E 139°54'0 0.0
2014-Jul-22 08:31N 35°34' E 139°54'0 0.0
2014-Jul-22 07:31N 35°34' E 139°54'0 0.0
2014-Jul-22 06:31N 35°34' E 139°54'0 0.0
2014-Jul-22 05:31N 35°34' E 139°54'0 0.0
2014-Jul-22 04:31N 35°34' E 139°54'0 0.0
2014-Jul-22 03:31N 35°34' E 139°54'0 0.0
2014-Jul-22 02:31N 35°34' E 139°54'0 0.0
2014-Jul-22 01:31N 35°34' E 139°54'0 0.0
2014-Jul-22 00:22N 35°34' E 139°54'0 0.0
2014-Jul-21 23:31N 35°34' E 139°54'0 0.0
2014-Jul-21 22:31N 35°34' E 139°54'0 0.0
2014-Jul-21 21:28N 35°34' E 139°54'0 0.0
2014-Jul-21 20:31N 35°34' E 139°54'0 0.0
2014-Jul-21 20:13N 35°34' E 139°54'0 0.0
2014-Jul-21 19:28N 35°34' E 139°54'0 0.1
2014-Jul-21 18:31N 35°34' E 139°54'0 0.1
2014-Jul-21 17:31N 35°34' E 139°54'0 0.0
2014-Jul-21 16:31N 35°34' E 139°54'0 0.0
2014-Jul-21 15:31N 35°34' E 139°54'0 0.0
2014-Jul-21 14:31N 35°34' E 139°54'0 0.0
2014-Jul-21 13:31N 35°34' E 139°54'0 0.0
2014-Jul-21 12:31N 35°34' E 139°54'0 0.0
2014-Jul-21 11:22N 35°34' E 139°54'0 0.0
2014-Jul-21 10:28N 35°34' E 139°54'0 0.0
2014-Jul-21 09:33N 35°34' E 139°54'1111.4
2014-Jul-21 08:34N 35°24' E 139°47'1111.1
2014-Jul-21 07:33N 35°13' E 139°47'1817.9
2014-Jul-21 06:33N 34°56' E 139°45'1716.6
2014-Jul-21 05:33N 34°56' E 140°05'2218.6
2014-Jul-21 04:23N 35°07' E 140°28'1717.7
2014-Jul-21 03:26N 35°20' E 140°41'1818.2
2014-Jul-21 02:27N 35°34' E 140°54'2418.7
2014-Jul-21 01:11N 35°56' E 141°06'11 0.2
2014-Jul-18 22:11N 36°06' E 141°09'1518.8
2014-Jul-18 21:24N 35°53' E 141°04'1618.3
2014-Jul-18 20:34N 35°38' E 140°57'1919.2
2014-Jul-18 19:34N 35°22' E 140°44'1919.4
2014-Jul-18 18:34N 35°07' E 140°29'1818.1
2014-Jul-18 17:34N 34°56' E 140°11'1817.8
2014-Jul-18 16:32N 34°50' E 139°50'1717.5
2014-Jul-18 15:33N 35°07' E 139°44'1414.3
2014-Jul-18 14:33N 35°21' E 139°42'1514.9
2014-Jul-18 13:33N 35°35' E 139°48'3 3.1
2014-Jul-18 12:33N 35°38' E 139°46'0 0.0
2014-Jul-18 11:31N 35°38' E 139°46'0 0.0
2014-Jul-18 10:28N 35°38' E 139°46'0 0.0
2014-Jul-18 09:31N 35°38' E 139°46'0 0.0
2014-Jul-18 08:34N 35°38' E 139°46'1110.6
2014-Jul-18 07:33N 35°28' E 139°50'1212.3
2014-Jul-18 06:33N 35°16' E 139°47'1615.6
2014-Jul-18 05:33N 35°00' E 139°43'1514.8
2014-Jul-18 04:33N 34°51' E 139°57'1918.7
2014-Jul-18 03:33N 35°00' E 140°17'1817.8
2014-Jul-18 02:33N 35°12' E 140°34'1918.3
2014-Jul-18 01:33N 35°26' E 140°48'3819.0
2014-Jul-17 23:33N 35°60' E 141°08'  

Dump ship's entire track history